Time;durP1;ratioP1;P1;durP2;ratioP2;P2;SDS_P1;SDS_P2;PMS_P1;PMS_P2;Temp;Humidity;BMP_temperature;BMP_pressure;BME280_temperature;BME280_humidity;BME280_pressure;Samples;Min_cycle;Max_cycle;Signal;HPM_P1;HPM_P2
2022/07/09 00:01:31;;;;;;;5.43;2.60;;;21.30;51.40;;;21.65;37.67;99780.09;4973913;28;124095;-92
2022/07/09 00:03:57;;;;;;;4.63;2.60;;;21.20;52.10;;;21.62;38.11;99782.44;4966302;28;122876;-91
2022/07/09 00:06:24;;;;;;;10.20;3.10;;;21.20;51.60;;;21.59;38.08;99774.75;4971008;28;118998;-89
2022/07/09 00:08:50;;;;;;;5.43;2.50;;;21.20;51.70;;;21.56;38.16;99778.28;4983287;28;119121;-91
2022/07/09 00:11:17;;;;;;;9.70;2.90;;;21.20;51.80;;;21.55;38.30;99781.47;4974440;28;124420;-91
2022/07/09 00:13:43;;;;;;;7.23;2.93;;;21.10;51.80;;;21.51;38.42;99781.38;4969836;28;123786;-91
2022/07/09 00:16:11;;;;;;;4.30;3.07;;;21.10;52.00;;;21.49;38.28;99774.47;4975978;28;118502;-93
2022/07/09 00:18:37;;;;;;;7.93;3.00;;;21.10;52.10;;;21.46;38.36;99773.19;4971275;28;119073;-92
2022/07/09 00:21:04;;;;;;;5.30;3.00;;;21.10;52.20;;;21.43;38.28;99771.09;4979492;28;124723;-91
2022/07/09 00:23:30;;;;;;;4.43;3.10;;;21.10;52.30;;;21.41;38.37;99765.03;4990378;28;124151;-92
2022/07/09 00:25:59;;;;;;;4.17;3.13;;;21.00;52.30;;;21.36;38.54;99768.91;4984218;28;119320;-92
2022/07/09 00:28:26;;;;;;;6.57;3.00;;;21.00;52.60;;;21.35;38.81;99760.81;4979432;28;118839;-93
2022/07/09 00:30:53;;;;;;;9.30;3.60;;;21.00;52.70;;;21.32;38.82;99770.00;4989144;28;125025;-91
2022/07/09 00:33:19;;;;;;;7.97;3.70;;;20.90;52.70;;;21.31;38.57;99757.13;4978923;28;124650;-91
2022/07/09 00:35:47;;;;;;;6.93;2.97;;;20.90;52.90;;;21.28;38.63;99766.25;4977150;28;118879;-92
2022/07/09 00:38:13;;;;;;;6.70;3.20;;;21.30;53.30;;;21.24;38.95;99759.72;4971519;28;118183;-92
2022/07/09 00:40:43;;;;;;;6.10;2.70;;;20.80;52.90;;;21.19;39.24;99755.19;4982906;28;123463;-92
2022/07/09 00:43:21;;;;;;;9.27;3.10;;;20.80;53.00;;;21.16;39.26;99758.72;4981918;28;122150;-93
2022/07/09 00:45:48;;;;;;;9.20;3.03;;;20.80;53.30;;;21.13;39.43;99751.81;4977130;28;118481;-91
2022/07/09 00:48:15;;;;;;;5.30;3.30;;;20.80;53.30;;;21.09;39.36;99750.94;4983482;28;118900;-93
2022/07/09 00:50:43;;;;;;;5.20;2.50;;;20.70;53.30;;;21.06;39.38;99753.63;4975376;28;123903;-92
2022/07/09 00:53:13;;;;;;;5.80;2.40;;;20.70;53.40;;;21.03;39.32;99743.91;4991187;28;124067;-92
2022/07/09 00:55:41;;;;;;;3.70;2.23;;;20.60;53.50;;;20.99;39.62;99740.19;4986704;28;118897;-93
2022/07/09 00:58:09;;;;;;;5.70;2.63;;;20.60;53.60;;;20.95;39.66;99737.31;4988963;28;119175;-91
2022/07/09 01:00:36;;;;;;;4.60;2.33;;;20.60;53.70;;;20.92;39.43;99734.38;5006626;28;126551;-92
2022/07/09 01:03:02;;;;;;;4.17;2.37;;;20.50;53.60;;;20.90;39.85;99733.91;4988391;28;123981;-92
2022/07/09 01:05:35;;;;;;;7.60;3.10;;;20.50;53.80;;;20.86;39.90;99733.00;4974465;28;120189;-92
2022/07/09 01:08:07;;;;;;;5.40;2.40;;;20.50;53.90;;;20.83;39.82;99733.72;4986274;28;119093;-91
2022/07/09 01:10:34;;;;;;;2.80;2.10;;;20.50;54.00;;;20.80;39.69;99728.84;4988970;28;124681;-93
2022/07/09 01:13:03;;;;;;;4.20;2.10;;;20.40;54.00;;;20.75;39.57;99727.09;4984525;28;123441;-91
2022/07/09 01:15:31;;;;;;;4.50;2.23;;;20.40;54.10;;;20.72;39.85;99725.00;4987816;28;119662;-92
2022/07/09 01:17:58;;;;;;;6.57;2.30;;;20.30;54.10;;;20.69;40.15;99720.91;4986092;28;119148;-92
2022/07/09 01:20:26;;;;;;;3.47;2.00;;;20.30;54.30;;;20.68;40.12;99730.50;4990682;28;124379;-92
2022/07/09 01:22:53;;;;;;;3.53;1.93;;;20.20;54.30;;;20.67;39.93;99725.25;4983143;28;123811;-91
2022/07/09 01:25:31;;;;;;;6.13;2.53;;;20.30;54.40;;;20.65;39.94;99728.41;4989021;28;119413;-92
2022/07/09 01:27:58;;;;;;;2.73;1.80;;;20.20;54.40;;;20.62;40.23;99722.69;4978487;28;118882;-92
2022/07/09 01:30:26;;;;;;;3.03;1.90;;;20.20;54.50;;;20.59;40.14;99723.44;4978428;28;124357;-93
2022/07/09 01:32:54;;;;;;;3.73;1.83;;;20.20;54.60;;;20.55;40.37;99723.31;4976043;28;125892;-93
2022/07/09 01:35:21;;;;;;;3.33;2.23;;;20.20;54.60;;;20.53;40.08;99725.63;4986464;28;119332;-91
2022/07/09 01:37:48;;;;;;;3.40;2.20;;;20.10;54.60;;;20.51;40.33;99722.38;4988596;28;119176;-92
2022/07/09 01:40:14;;;;;;;3.10;1.67;;;20.10;54.60;;;20.50;40.40;99715.13;4991620;28;125250;-91
2022/07/09 01:42:41;;;;;;;6.63;2.13;;;20.10;54.60;;;20.48;40.08;99714.66;4980150;28;123981;-92
2022/07/09 01:45:08;;;;;;;2.77;2.00;;;20.10;54.70;;;20.46;40.22;99719.81;4981448;28;120702;-92
2022/07/09 01:47:35;;;;;;;2.80;1.90;;;20.00;54.60;;;20.43;40.16;99714.91;4985614;28;120726;-94
2022/07/09 01:50:01;;;;;;;3.13;1.60;;;20.00;54.60;;;20.42;40.52;99716.09;4981054;28;124194;-92
2022/07/09 01:52:30;;;;;;;4.37;1.70;;;20.00;54.80;;;20.38;40.32;99713.16;4992740;28;123836;-92
2022/07/09 01:54:57;;;;;;;3.90;2.00;;;20.00;55.60;;;20.37;40.82;99705.94;4987057;28;119333;-92
2022/07/09 01:57:23;;;;;;;5.37;2.27;;;20.00;55.10;;;20.34;40.63;99711.41;4978401;28;118248;-91
2022/07/09 01:59:50;;;;;;;5.07;1.97;;;19.90;55.20;;;20.31;41.01;99712.97;4968506;28;123356;-93
2022/07/09 02:02:16;;;;;;;6.40;2.40;;;19.90;55.40;;;20.28;41.24;99700.47;4971735;28;122802;-91
2022/07/09 02:04:43;;;;;;;3.20;2.13;;;19.90;55.60;;;20.26;41.06;99696.38;4982913;28;118505;-91
2022/07/09 02:07:09;;;;;;;5.83;2.17;;;19.90;55.80;;;20.24;41.58;99696.72;4987450;28;118900;-91
2022/07/09 02:09:36;;;;;;;3.17;1.80;;;19.90;56.00;;;20.23;41.63;99700.72;4982729;28;124338;-92
2022/07/09 02:12:04;;;;;;;8.13;2.77;;;19.80;56.20;;;20.23;41.66;99695.09;4979048;28;123949;-93
2022/07/09 02:14:31;;;;;;;3.77;2.13;;;19.80;56.20;;;20.20;41.65;99695.81;4989621;28;118394;-92
2022/07/09 02:16:57;;;;;;;5.00;2.37;;;19.80;56.40;;;20.17;41.82;99696.50;4975668;28;118989;-93
2022/07/09 02:19:24;;;;;;;3.93;2.03;;;19.80;56.60;;;20.15;41.87;99692.41;4986547;28;123271;-92
2022/07/09 02:21:51;;;;;;;4.40;2.00;;;19.70;56.60;;;20.13;41.99;99689.97;4962135;28;122632;-94
2022/07/09 02:24:17;;;;;;;4.20;2.30;;;19.70;56.80;;;20.11;42.05;99700.72;4987913;28;119273;-92
2022/07/09 02:26:44;;;;;;;2.33;1.80;;;19.70;56.90;;;20.09;41.97;99691.84;4970624;28;119128;-92
2022/07/09 02:29:10;;;;;;;2.50;2.00;;;19.70;57.00;;;20.07;42.04;99685.78;4985221;28;124517;-93
2022/07/09 02:31:37;;;;;;;6.87;2.30;;;19.60;57.00;;;20.05;42.18;99691.75;4982970;28;124650;-92
2022/07/09 02:34:03;;;;;;;6.83;2.43;;;19.60;57.20;;;20.04;42.08;99686.47;4978599;28;119587;-90
2022/07/09 02:36:30;;;;;;;3.13;1.77;;;19.60;57.20;;;20.01;41.99;99696.41;4972805;28;120110;-92
2022/07/09 02:38:56;;;;;;;4.70;2.27;;;19.60;57.30;;;20.00;42.12;99699.59;4982103;28;123008;-91
2022/07/09 02:41:23;;;;;;;5.63;2.60;;;19.60;58.00;;;19.98;42.39;99699.13;4981409;28;123712;-91
2022/07/09 02:43:49;;;;;;;3.33;2.03;;;19.60;57.50;;;19.95;42.25;99695.03;4994688;28;119087;-91
2022/07/09 02:46:16;;;;;;;7.80;2.10;;;19.50;57.50;;;19.94;42.48;99687.00;4981598;28;119022;-93
2022/07/09 02:48:42;;;;;;;3.53;2.07;;;19.50;57.60;;;19.92;42.47;99692.13;4988658;28;124069;-92
2022/07/09 02:51:09;;;;;;;2.60;2.10;;;19.50;57.70;;;19.90;42.48;99689.66;4984378;28;124470;-93
2022/07/09 02:53:35;;;;;;;2.90;2.20;;;19.50;57.70;;;19.87;42.56;99693.19;4985623;28;119306;-91
2022/07/09 02:56:02;;;;;;;6.60;2.83;;;19.50;57.70;;;19.84;42.63;99694.69;4985042;28;119196;-92
2022/07/09 02:58:29;;;;;;;4.63;2.43;;;19.50;57.80;;;19.82;42.48;99688.63;4990225;28;123061;-92
2022/07/09 03:00:55;;;;;;;5.20;2.20;;;19.40;57.80;;;19.80;42.63;99699.41;4981937;28;124464;-91
2022/07/09 03:03:23;;;;;;;4.17;2.33;;;19.40;58.00;;;19.78;42.62;99695.31;4982064;28;119419;-92
2022/07/09 03:05:50;;;;;;;5.53;2.30;;;19.40;58.10;;;19.75;42.92;99701.63;4987628;28;119040;-91
2022/07/09 03:08:17;;;;;;;3.37;1.97;;;19.30;58.10;;;19.72;42.93;99689.13;4977624;28;123815;-91
2022/07/09 03:10:44;;;;;;;5.90;2.20;;;19.30;58.20;;;19.69;43.16;99697.41;4984006;28;124076;-92
2022/07/09 03:13:10;;;;;;;4.20;2.03;;;19.30;58.50;;;;;;4985469;28;117255;-91
2022/07/09 03:15:36;;;;;;;4.40;2.50;;;19.20;58.70;;;19.59;43.39;99691.09;4986780;28;119245;-92
2022/07/09 03:18:03;;;;;;;4.60;2.43;;;19.20;58.90;;;19.57;43.33;99695.41;4974264;28;124227;-92
2022/07/09 03:20:29;;;;;;;3.77;2.07;;;19.20;59.00;;;19.56;43.44;99690.97;4977400;28;124117;-93
2022/07/09 03:22:56;;;;;;;3.40;1.87;;;19.20;59.10;;;19.55;43.46;99700.53;4987438;28;120818;-92
2022/07/09 03:25:23;;;;;;;2.90;1.83;;;19.10;59.00;;;19.53;43.39;99703.72;4982412;28;119527;-93
2022/07/09 03:27:49;;;;;;;3.67;2.10;;;19.10;59.00;;;19.53;43.53;99702.88;4971150;28;124040;-92
2022/07/09 03:30:16;;;;;;;12.93;2.00;;;19.10;58.90;;;19.50;43.30;99701.56;4988183;28;123739;-93
2022/07/09 03:32:42;;;;;;;7.50;1.90;;;19.10;58.90;;;19.50;43.30;99697.97;4978419;28;119412;-93
2022/07/09 03:35:09;;;;;;;2.10;1.90;;;19.10;58.90;;;19.47;43.23;99710.69;4986267;28;118404;-93
2022/07/09 03:37:35;;;;;;;3.40;2.20;;;19.10;59.00;;;19.45;43.46;99713.06;4987750;28;123188;-92
2022/07/09 03:40:03;;;;;;;2.87;1.90;;;19.00;58.90;;;19.41;43.42;99707.31;4982415;28;124065;-92
2022/07/09 03:42:29;;;;;;;3.67;1.90;;;19.00;59.00;;;19.40;43.55;99714.09;4995189;28;118620;-91
2022/07/09 03:44:56;;;;;;;4.80;2.20;;;19.00;59.20;;;19.38;43.80;99710.81;4966384;28;118560;-91
2022/07/09 03:47:23;;;;;;;3.63;1.87;;;19.00;59.40;;;19.37;43.90;99714.78;4978265;28;124026;-92
2022/07/09 03:49:50;;;;;;;8.53;2.23;;;19.00;59.60;;;19.35;44.20;99708.72;4983336;28;122172;-94
2022/07/09 03:52:17;;;;;;;3.53;2.00;;;18.90;60.00;;;19.28;44.57;99710.44;4978580;28;119458;-92
2022/07/09 03:54:44;;;;;;;4.20;2.20;;;18.80;60.30;;;19.21;44.82;99705.44;4986094;28;119087;-92
2022/07/09 03:57:11;;;;;;;4.37;2.23;;;18.80;60.80;;;19.15;45.16;99713.22;4981926;28;122927;-92
2022/07/09 03:59:38;;;;;;;6.50;2.60;;;18.70;61.30;;;19.13;45.26;99714.75;4984761;28;121364;-91
2022/07/09 04:02:05;;;;;;;6.23;2.70;;;18.60;61.50;;;19.16;45.42;99714.88;4992603;28;119475;-93
2022/07/09 04:04:32;;;;;;;6.80;2.37;;;18.60;61.70;;;19.18;45.23;99708.91;4985753;28;119259;-92
2022/07/09 04:06:58;;;;;;;4.83;2.63;;;18.70;61.90;;;19.19;45.38;99713.38;4983320;28;124052;-92
2022/07/09 04:09:25;;;;;;;7.30;2.80;;;18.70;62.00;;;19.21;45.44;99711.03;4969060;28;122710;-92
2022/07/09 04:11:51;;;;;;;6.97;2.67;;;18.70;62.10;;;19.28;45.27;99714.06;4978334;28;120130;-93
2022/07/09 04:14:19;;;;;;;5.67;2.50;;;18.70;62.30;;;19.34;45.29;99721.09;4986484;28;119178;-93
2022/07/09 04:16:48;;;;;;;6.17;2.37;;;18.80;62.50;;;19.33;45.47;99725.06;4979695;28;124084;-92
2022/07/09 04:19:15;;;;;;;4.27;2.70;;;18.80;62.60;;;19.28;45.59;99722.47;4981860;28;123393;-93
2022/07/09 04:21:41;;;;;;;7.60;2.70;;;18.70;62.80;;;19.20;45.94;99727.00;4978725;28;119522;-92
2022/07/09 04:24:08;;;;;;;6.77;3.27;;;18.70;63.00;;;19.10;46.07;99723.84;4977621;28;119221;-92
2022/07/09 04:26:34;;;;;;;6.57;3.03;;;18.70;63.40;;;19.01;46.35;99717.53;4981474;28;123129;-92
2022/07/09 04:29:01;;;;;;;4.83;2.50;;;18.50;63.70;;;18.93;46.73;99724.84;4979651;28;123785;-93
2022/07/09 04:31:27;;;;;;;3.50;2.70;;;18.50;64.20;;;18.88;46.86;99731.47;4971637;28;118534;-94
2022/07/09 04:33:54;;;;;;;4.47;3.10;;;18.40;64.50;;;18.84;46.81;99738.13;4978519;28;118244;-91
2022/07/09 04:36:20;;;;;;;5.10;3.03;;;18.40;64.60;;;18.80;46.98;99735.19;4985245;28;124329;-94
2022/07/09 04:38:48;;;;;;;3.10;2.30;;;18.40;64.70;;;18.79;47.17;99738.34;4985183;28;123929;-93
2022/07/09 04:41:15;;;;;;;4.83;2.67;;;18.30;64.60;;;18.79;47.18;99738.34;4985934;28;119293;-92
2022/07/09 04:43:41;;;;;;;3.73;2.33;;;18.30;64.90;;;18.77;47.39;99730.28;4984034;28;118319;-94
2022/07/09 04:46:08;;;;;;;3.83;2.27;;;18.30;65.30;;;18.74;47.44;99733.75;4977639;28;124133;-92
2022/07/09 04:48:34;;;;;;;7.83;2.30;;;18.30;65.70;;;18.72;47.49;99724.88;4980816;28;124090;-92
2022/07/09 04:51:01;;;;;;;4.70;2.37;;;18.20;65.70;;;18.72;47.51;99727.66;4982819;28;118436;-93
2022/07/09 04:53:27;;;;;;;3.87;2.63;;;18.20;65.90;;;18.75;47.61;99732.59;4990171;28;118860;-92
2022/07/09 04:55:54;;;;;;;2.37;2.07;;;18.30;66.10;;;18.76;47.25;99731.47;4984273;28;124293;-92
2022/07/09 04:58:20;;;;;;;5.73;2.30;;;18.30;66.10;;;18.80;47.20;99729.59;4989093;28;123865;-92
2022/07/09 05:00:47;;;;;;;6.17;2.40;;;18.30;66.20;;;18.85;47.24;99726.56;4983597;28;119654;-94
2022/07/09 05:03:13;;;;;;;6.20;3.03;;;18.30;66.10;;;18.90;47.21;99728.34;4982668;28;119991;-92
2022/07/09 05:05:40;;;;;;;3.77;2.07;;;18.40;66.20;;;18.95;47.25;99728.13;4989848;28;124237;-92
2022/07/09 05:08:06;;;;;;;4.47;2.60;;;18.40;66.20;;;19.01;47.12;99729.53;4979650;28;123057;-93
2022/07/09 05:10:33;;;;;;;3.20;2.17;;;18.50;66.30;;;19.06;47.00;99725.72;4985138;28;118664;-93
2022/07/09 05:13:01;;;;;;;4.80;2.90;;;18.50;66.20;;;19.06;47.00;99726.53;4982311;28;117104;-92
2022/07/09 05:15:30;;;;;;;5.43;2.53;;;18.50;66.20;;;19.10;47.06;99721.03;4989908;28;124012;-91
2022/07/09 05:17:57;;;;;;;4.13;2.30;;;18.50;66.20;;;19.15;46.92;99715.22;4989610;28;124104;-93
2022/07/09 05:20:24;;;;;;;5.10;2.43;;;18.60;66.20;;;19.19;46.85;99719.78;4991112;28;118812;-93
2022/07/09 05:27:23;;;;;;;8.30;2.60;;;18.60;65.90;;;19.25;46.00;99720.38;4971544;28;124601;-92
2022/07/09 05:29:50;;;;;;;4.60;2.00;;;18.70;65.30;;;19.32;45.72;99717.00;4973267;28;125612;-92
2022/07/09 05:32:16;;;;;;;4.87;2.30;;;18.70;64.80;;;19.39;45.51;99723.66;4973445;28;118694;-94
2022/07/09 05:34:43;;;;;;;4.53;2.40;;;18.80;64.60;;;19.47;45.26;99723.91;4973304;28;118894;-91
2022/07/09 05:37:09;;;;;;;3.33;2.60;;;18.80;64.30;;;19.52;45.00;99723.66;4963205;28;122798;-93
2022/07/09 05:39:36;;;;;;;4.73;2.27;;;18.90;64.40;;;19.56;45.20;99716.22;4971996;28;124153;-92
2022/07/09 05:42:03;;;;;;;5.30;3.27;;;19.00;64.50;;;19.61;45.17;99713.13;4977547;28;118243;-92
2022/07/09 05:44:29;;;;;;;4.50;3.10;;;19.00;64.60;;;19.62;45.33;99718.41;4974581;28;117308;-92
2022/07/09 05:46:56;;;;;;;8.43;2.77;;;19.00;64.60;;;19.68;45.51;99723.81;4972781;28;124228;-93
2022/07/09 05:49:22;;;;;;;4.63;2.40;;;19.00;64.80;;;19.76;45.24;99726.50;4973028;28;124230;-92
2022/07/09 05:51:49;;;;;;;5.77;2.80;;;19.10;65.00;;;19.84;45.29;99722.75;4967279;28;120933;-94
2022/07/09 05:54:15;;;;;;;5.20;2.67;;;19.10;64.90;;;19.92;45.23;99731.41;4974074;28;120366;-93
2022/07/09 05:56:42;;;;;;;6.70;2.57;;;19.20;64.90;;;19.98;45.12;99733.59;4969086;28;124265;-93
2022/07/09 05:59:08;;;;;;;6.27;3.20;;;19.30;65.00;;;20.03;44.74;99724.94;4972110;28;124455;-92
2022/07/09 06:01:39;;;;;;;3.10;2.33;;;19.30;64.70;;;20.02;45.04;99734.53;4968596;28;119588;-92
2022/07/09 06:16:22;;;;;;;3.93;2.20;;;19.40;64.20;;;19.97;44.41;99720.75;4983776;28;119871;-92
2022/07/09 06:18:49;;;;;;;7.07;2.47;;;19.30;63.80;;;20.02;44.46;99716.91;4981183;28;120882;-92
2022/07/09 06:21:15;;;;;;;6.93;2.40;;;19.30;63.80;;;20.11;44.29;99720.38;4988390;28;123524;-92
2022/07/09 06:23:43;;;;;;;2.53;1.93;;;19.40;63.70;;;20.21;43.98;99719.06;4979009;28;96736;-91
2022/07/09 06:26:09;;;;;;;5.63;2.50;;;19.50;63.50;;;20.29;43.73;99710.50;4972888;28;118535;-91
2022/07/09 06:28:37;;;;;;;4.67;2.67;;;19.60;63.40;;;20.39;43.68;99716.78;4978193;28;118637;-93
2022/07/09 06:38:30;;;;;;;3.80;2.27;;;19.80;62.80;;;20.63;43.00;99711.13;4971696;28;120829;-92
2022/07/09 06:40:57;;;;;;;3.37;2.20;;;19.90;62.70;;;20.68;42.93;99716.47;4982656;28;118279;-92
2022/07/09 06:43:23;;;;;;;5.67;2.20;;;20.00;62.50;;;20.73;43.14;99713.41;4986206;28;124514;-92
2022/07/09 06:45:50;;;;;;;3.80;2.33;;;20.00;62.50;;;20.79;42.98;99710.34;4983715;28;122911;-92
2022/07/09 06:48:16;;;;;;;5.70;3.07;;;20.10;62.60;;;20.85;42.92;99703.31;4982666;28;120210;-92
2022/07/09 06:51:01;;;;;;;4.10;2.20;;;20.20;62.50;;;20.90;43.13;99708.63;4981137;28;119433;-92
2022/07/09 06:53:28;;;;;;;3.47;2.20;;;20.20;62.30;;;20.97;42.80;99694.78;4979785;28;123974;-91
2022/07/09 06:55:54;;;;;;;7.43;2.67;;;20.30;62.20;;;21.05;42.81;99702.22;4983561;28;124265;-93
2022/07/09 06:58:21;;;;;;;4.37;2.47;;;20.40;62.30;;;21.15;42.48;99701.69;4985231;28;118146;-92
2022/07/09 07:00:48;;;;;;;4.93;2.40;;;20.50;62.40;;;21.27;42.44;99703.59;4975056;28;118883;-91
2022/07/09 07:03:15;;;;;;;8.80;2.70;;;20.50;62.20;;;21.38;42.13;99699.09;4985540;28;124483;-91
2022/07/09 07:05:43;;;;;;;3.77;2.47;;;20.60;62.10;;;21.52;42.34;99703.44;4996873;28;123585;-92
2022/07/09 07:08:10;;;;;;;5.33;2.70;;;20.70;62.00;;;21.66;41.77;99703.00;4978382;28;119115;-92
2022/07/09 07:10:36;;;;;;;4.73;2.67;;;20.80;61.60;;;21.76;41.53;99693.97;4987444;28;117875;-91
2022/07/09 07:13:03;;;;;;;6.73;2.20;;;20.90;61.10;;;21.79;41.25;99696.06;4983063;28;125939;-90
2022/07/09 07:15:29;;;;;;;7.00;2.73;;;21.00;61.00;;;21.84;41.00;99698.59;4986579;28;122978;-92
2022/07/09 07:17:56;;;;;;;7.37;2.43;;;21.10;61.40;;;21.93;41.17;99696.41;4984110;28;119208;-91
2022/07/09 07:20:24;;;;;;;9.23;2.47;;;21.10;60.50;;;22.04;40.89;99702.28;4986722;28;118882;-92
2022/07/09 07:22:51;;;;;;;13.27;5.77;;;21.20;60.40;;;22.17;40.56;99702.97;4967988;28;124763;-91
2022/07/09 07:25:21;;;;;;;10.33;6.13;;;21.30;60.40;;;22.28;40.55;99696.41;4969179;28;123654;-92
2022/07/09 07:27:47;;;;;;;13.33;4.53;;;21.40;60.40;;;22.42;40.37;99690.25;4982292;28;119760;-91
2022/07/09 07:30:14;;;;;;;6.00;3.03;;;21.50;60.30;;;22.49;40.03;99687.59;4981846;28;119142;-91
2022/07/09 07:32:40;;;;;;;5.03;2.47;;;21.60;59.70;;;22.57;39.80;99685.75;4980626;28;123490;-90
2022/07/09 07:35:07;;;;;;;6.90;2.43;;;21.70;59.70;;;22.67;39.87;99690.75;4967777;28;124294;-91
2022/07/09 07:37:34;;;;;;;6.60;2.37;;;21.80;59.60;;;22.80;39.44;99682.16;4964732;28;120277;-90
2022/07/09 07:40:00;;;;;;;7.37;1.90;;;21.90;59.30;;;22.85;39.20;99682.66;4971719;28;120583;-89
2022/07/09 07:42:27;;;;;;;5.47;2.03;;;22.00;58.80;;;22.89;39.14;99682.72;4970046;28;124476;-91
2022/07/09 07:44:53;;;;;;;5.80;1.87;;;22.10;58.60;;;23.00;38.80;99685.75;4969407;28;122630;-91
2022/07/09 07:47:20;;;;;;;4.40;3.00;;;22.20;58.40;;;23.11;38.59;99686.78;4977644;28;119329;-91
2022/07/09 07:49:46;;;;;;;6.50;2.20;;;22.30;58.90;;;23.19;38.72;99685.72;4968596;28;118809;-90
2022/07/09 07:52:13;;;;;;;4.70;2.70;;;22.40;58.20;;;23.24;38.83;99685.41;4966354;28;124209;-90
2022/07/09 07:54:39;;;;;;;4.97;2.40;;;22.40;58.20;;;23.29;38.96;99685.09;4976048;28;124346;-91
2022/07/09 07:57:06;;;;;;;6.10;2.60;;;22.50;58.20;;;23.33;38.76;99676.69;4966597;28;119852;-91
2022/07/09 07:59:32;;;;;;;4.20;2.10;;;22.50;58.10;;;23.38;38.83;99682.81;4968608;28;118815;-91
2022/07/09 08:01:59;;;;;;;13.43;2.50;;;22.60;58.00;;;23.45;38.80;99676.47;4971726;28;124178;-91
2022/07/09 08:04:25;;;;;;;5.27;2.30;;;22.60;58.10;;;23.52;38.56;99678.63;4965595;28;123024;-92
2022/07/09 08:06:52;;;;;;;11.00;3.00;;;22.70;57.90;;;23.60;38.71;99680.34;4968785;28;119359;-91
2022/07/09 08:09:18;;;;;;;5.97;2.47;;;22.80;58.00;;;23.69;38.52;99677.25;4969451;28;119017;-91
2022/07/09 08:11:45;;;;;;;3.70;2.23;;;22.90;58.10;;;23.76;38.54;99672.56;4966088;28;123525;-92
2022/07/09 08:14:12;;;;;;;4.67;2.30;;;23.00;58.00;;;23.83;38.43;99682.31;4971426;28;123759;-90
2022/07/09 08:16:39;;;;;;;6.93;2.30;;;23.00;57.60;;;23.88;38.17;99677.16;4974796;28;118939;-90
2022/07/09 08:19:05;;;;;;;4.33;1.90;;;23.10;57.60;;;23.96;37.95;99675.25;4969288;28;118816;-90
2022/07/09 08:21:32;;;;;;;3.10;1.70;;;23.20;57.40;;;24.01;38.16;99669.28;4965875;28;125228;-90
2022/07/09 08:24:00;;;;;;;3.03;2.10;;;23.20;57.20;;;24.07;37.55;99670.56;4963681;28;123099;-89
2022/07/09 08:26:28;;;;;;;7.27;2.67;;;23.30;56.80;;;24.13;37.46;99666.25;4968623;28;119468;-89
2022/07/09 08:28:55;;;;;;;2.40;1.80;;;23.40;56.50;;;24.19;37.57;99667.53;4968491;28;119349;-89
2022/07/09 08:31:21;;;;;;;4.50;1.90;;;23.40;56.70;;;24.27;37.45;99667.63;4981215;28;124171;-90
2022/07/09 08:33:48;;;;;;;4.17;1.90;;;23.50;56.60;;;24.32;37.30;99662.47;4971672;28;124151;-89
2022/07/09 08:36:15;;;;;;;7.10;1.80;;;23.50;56.10;;;24.37;36.79;99659.28;4973271;28;119403;-90
2022/07/09 08:38:43;;;;;;;7.20;2.47;;;23.60;55.80;;;24.41;36.39;99656.50;4969757;28;118872;-88
2022/07/09 08:41:10;;;;;;;2.90;1.70;;;23.70;55.30;;;24.47;36.36;99657.81;4977154;28;123521;-88
2022/07/09 08:43:38;;;;;;;3.70;2.07;;;23.70;55.20;;;24.52;36.44;99660.28;4972046;28;124094;-89
2022/07/09 08:46:06;;;;;;;4.30;1.77;;;23.80;55.10;;;24.59;36.24;99646.25;4983418;28;119465;-89
2022/07/09 08:48:34;;;;;;;3.53;1.83;;;23.90;55.00;;;24.62;36.26;99653.97;4974293;28;119113;-89
2022/07/09 08:51:02;;;;;;;3.90;1.60;;;23.90;55.00;;;24.66;36.42;99645.50;4968436;28;124585;-89
2022/07/09 08:53:29;;;;;;;2.90;1.80;;;23.90;54.90;;;24.71;36.33;99638.69;4982167;28;124100;-90
2022/07/09 08:55:57;;;;;;;3.33;1.87;;;24.00;55.10;;;24.74;36.41;99637.94;4981966;28;120364;-88
2022/07/09 08:58:24;;;;;;;4.33;1.87;;;24.00;55.10;;;24.75;36.50;99633.91;4968292;28;118982;-87
2022/07/09 09:00:51;;;;;;;4.33;1.73;;;24.00;55.00;;;24.76;36.27;99635.53;4969405;28;125253;-87
2022/07/09 09:03:18;;;;;;;3.07;1.50;;;24.10;55.40;;;24.77;36.24;99631.50;4976855;28;122984;-88
2022/07/09 09:05:45;;;;;;;4.50;2.07;;;24.10;54.50;;;24.76;35.85;99624.22;4969440;28;119295;-90
2022/07/09 09:08:21;;;;;;;3.70;1.70;;;24.10;53.90;;;24.74;35.76;99629.44;4970898;28;118844;-87
2022/07/09 09:10:48;;;;;;;5.70;1.63;;;24.10;53.90;;;24.75;35.98;99625.44;4969269;28;124145;-88
2022/07/09 09:13:16;;;;;;;1.87;1.33;;;24.10;53.80;;;24.77;35.59;99618.19;4968585;28;124280;-87
2022/07/09 09:15:43;;;;;;;3.97;1.47;;;24.20;53.60;;;24.81;35.45;99613.38;4974818;28;120482;-89
2022/07/09 09:18:10;;;;;;;3.57;2.10;;;24.20;53.60;;;24.86;35.23;99603.75;4975517;28;120013;-88
2022/07/09 09:20:44;;;;;;;2.40;1.57;;;24.20;54.10;;;24.90;35.58;99598.91;4978164;28;124579;-89
2022/07/09 09:23:16;;;;;;;3.63;1.90;;;24.30;53.40;;;24.96;35.13;99600.19;4980322;28;123551;-89
2022/07/09 09:25:42;;;;;;;4.00;1.87;;;24.30;53.30;;;25.02;35.38;99589.34;4971380;28;119204;-90
2022/07/09 09:28:12;;;;;;;3.80;1.83;;;24.40;53.50;;;25.04;35.57;99599.06;4969858;28;118869;-88
2022/07/09 09:30:43;;;;;;;4.67;1.90;;;24.40;53.40;;;25.07;35.34;99592.63;4974454;28;124043;-89
2022/07/09 09:33:15;;;;;;;3.80;1.80;;;24.40;53.60;;;25.14;35.54;99591.84;4972736;28;124768;-88
2022/07/09 09:35:45;;;;;;;2.93;1.60;;;24.50;53.80;;;25.24;35.75;99596.00;4976318;28;118606;-88
2022/07/09 09:38:12;;;;;;;2.00;1.80;;;24.60;54.00;;;25.32;35.64;99589.19;4968245;28;119021;-90
2022/07/09 09:40:45;;;;;;;3.33;1.80;;;24.70;53.90;;;25.41;35.23;99600.16;4979630;28;124588;-90
2022/07/09 09:43:14;;;;;;;2.87;1.50;;;24.70;53.70;;;25.47;35.34;99593.75;4977444;28;123036;-91
2022/07/09 09:45:40;;;;;;;3.63;1.57;;;24.80;53.60;;;25.54;35.10;99587.31;4963448;28;117070;-91
2022/07/09 09:48:07;;;;;;;2.47;1.27;;;24.90;53.20;;;25.57;34.83;99581.69;4970605;28;119261;-85
2022/07/09 09:50:34;;;;;;;2.43;1.50;;;24.90;52.80;;;25.57;34.63;99584.50;4968458;28;124114;-84
2022/07/09 09:53:01;;;;;;;2.90;1.60;;;25.00;52.70;;;25.61;34.32;99586.56;4974926;28;124198;-84
2022/07/09 09:55:28;;;;;;;6.47;1.40;;;25.00;52.40;;;25.65;34.31;99579.69;4979911;28;119589;-84
2022/07/09 09:57:55;;;;;;;2.23;1.47;;;25.00;52.40;;;25.69;34.02;99579.75;4966418;28;118998;-85
2022/07/09 10:00:22;;;;;;;2.80;1.47;;;25.10;52.20;;;25.76;33.94;99591.09;4973304;28;125083;-85
2022/07/09 10:02:50;;;;;;;2.67;1.30;;;25.10;52.00;;;25.81;33.33;99578.59;4968393;28;124392;-84
2022/07/09 10:05:17;;;;;;;2.43;1.60;;;25.20;51.20;;;25.82;33.29;99575.38;4973266;28;120632;-83
2022/07/09 10:07:44;;;;;;;1.60;1.30;;;25.20;50.40;;;25.78;32.60;99568.84;4976877;28;119067;-85
2022/07/09 10:10:19;;;;;;;1.97;1.30;;;25.20;49.40;;;25.74;32.49;99573.72;4978429;28;124086;-85
2022/07/09 10:12:46;;;;;;;2.17;1.50;;;25.20;48.80;;;25.73;31.95;99572.06;4969170;28;124729;-89
2022/07/09 10:15:26;;;;;;;1.33;1.13;;;25.20;48.70;;;25.77;32.14;99568.06;4977285;28;119662;-86
2022/07/09 10:17:53;;;;;;;5.83;2.00;;;25.20;49.00;;;25.81;32.72;99570.09;4970994;28;119346;-86
2022/07/09 10:20:34;;;;;;;4.33;1.27;;;25.20;49.00;;;25.83;32.51;99565.66;4973003;28;124103;-87
2022/07/09 10:23:01;;;;;;;3.47;1.37;;;25.30;49.30;;;25.88;32.23;99559.66;4970003;28;124035;-85
2022/07/09 10:25:30;;;;;;;4.20;1.20;;;25.30;49.20;;;25.94;32.23;99555.22;4970006;28;119495;-85
2022/07/09 10:27:57;;;;;;;2.93;1.90;;;25.30;49.00;;;25.99;32.46;99552.00;4972768;28;118577;-85
2022/07/09 10:30:29;;;;;;;4.47;1.70;;;25.40;49.20;;;26.06;32.35;99544.72;4980097;28;124060;-84
2022/07/09 10:33:13;;;;;;;3.73;1.40;;;25.50;49.00;;;26.10;31.91;99545.56;4972298;28;124046;-85
2022/07/09 10:35:40;;;;;;;4.03;1.40;;;25.50;48.10;;;26.11;31.73;99550.00;4985685;28;119384;-85
2022/07/09 10:38:07;;;;;;;1.73;1.00;;;25.50;48.00;;;26.12;30.80;99548.81;4965831;28;119258;-84